Time;durP1;ratioP1;P1;durP2;ratioP2;P2;SDS_P1;SDS_P2;PMS_P1;PMS_P2;Temp;Humidity;BMP_temperature;BMP_pressure;BME280_temperature;BME280_humidity;BME280_pressure;Samples;Min_cycle;Max_cycle;Signal;HPM_P1;HPM_P2
2021/01/18 00:02:04;;;;;;;8.87;5.90;;;-11.10;99.90;;;;;;4347268;28;660542;-59
2021/01/18 00:04:51;;;;;;;41.70;10.80;;;-11.00;99.90;;;;;;4364440;28;660750;-60
2021/01/18 00:07:46;;;;;;;56.95;14.82;;;-11.20;99.90;;;;;;4362542;28;661178;-60
2021/01/18 00:10:33;;;;;;;69.35;17.00;;;-11.10;99.90;;;;;;4349657;28;661357;-59
2021/01/18 00:13:21;;;;;;;24.27;4.60;;;-11.30;99.90;;;;;;4335627;28;661674;-60
2021/01/18 00:16:08;;;;;;;23.25;6.85;;;-11.30;99.90;;;;;;4437395;28;660209;-59
2021/01/18 00:18:55;;;;;;;74.55;18.80;;;-11.20;99.90;;;;;;4362548;28;659608;-59
2021/01/18 00:21:45;;;;;;;33.83;10.03;;;-11.20;99.90;;;;;;4354022;28;660866;-59
2021/01/18 00:24:32;;;;;;;56.93;16.67;;;-11.10;99.90;;;;;;4336637;28;660608;-57
2021/01/18 00:27:19;;;;;;;69.27;16.73;;;-11.00;99.90;;;;;;4339396;28;660708;-60
2021/01/18 00:30:09;;;;;;;62.27;16.77;;;-11.10;99.90;;;;;;4357881;28;662163;-60
2021/01/18 00:32:59;;;;;;;39.75;12.43;;;-11.20;99.90;;;;;;4344567;28;661687;-58
2021/01/18 00:35:46;;;;;;;31.00;10.30;;;-11.40;99.90;;;;;;4349020;28;662414;-59
2021/01/18 00:38:33;;;;;;;70.67;18.80;;;-11.30;99.90;;;;;;4329225;28;661443;-59
2021/01/18 00:41:20;;;;;;;37.05;13.15;;;-11.30;99.90;;;;;;4334561;28;661056;-59
2021/01/18 00:44:07;;;;;;;56.55;16.98;;;-11.10;99.90;;;;;;4346391;28;661934;-59
2021/01/18 00:46:55;;;;;;;53.37;14.97;;;-11.40;99.90;;;;;;4334880;28;661299;-59
2021/01/18 00:49:42;;;;;;;83.07;20.53;;;-11.30;99.90;;;;;;4364216;28;661370;-59
2021/01/18 00:52:29;;;;;;;51.90;16.47;;;-11.20;99.90;;;;;;4351475;28;661241;-60
2021/01/18 00:55:17;;;;;;;48.60;12.00;;;-11.40;99.90;;;;;;4366893;28;662196;-59
2021/01/18 00:58:04;;;;;;;60.38;17.38;;;-11.30;99.90;;;;;;4349049;28;660535;-59
2021/01/18 01:00:51;;;;;;;51.10;13.10;;;-11.40;99.90;;;;;;4368612;28;663020;-59
2021/01/18 01:03:40;;;;;;;58.25;15.65;;;-11.20;99.90;;;;;;4349327;28;660554;-60
2021/01/18 01:06:32;;;;;;;21.27;6.97;;;-11.30;99.90;;;;;;4353396;28;661386;-59
2021/01/18 01:09:19;;;;;;;65.87;17.40;;;-11.40;99.90;;;;;;4321609;28;661008;-60
2021/01/18 01:12:07;;;;;;;50.67;14.43;;;-11.20;99.90;;;;;;4343313;28;662125;-59
2021/01/18 01:14:54;;;;;;;78.85;19.92;;;-11.20;99.90;;;;;;4350705;28;660863;-60
2021/01/18 01:17:42;;;;;;;90.45;22.65;;;-11.40;99.90;;;;;;4373742;28;661424;-59
2021/01/18 01:20:30;;;;;;;85.53;22.80;;;-11.50;99.90;;;;;;4350901;28;660549;-60
2021/01/18 01:23:17;;;;;;;64.10;14.97;;;-11.60;99.90;;;;;;4374205;28;661256;-60
2021/01/18 01:26:04;;;;;;;82.53;20.37;;;-11.50;99.90;;;;;;4342507;28;660635;-60
2021/01/18 01:28:51;;;;;;;81.07;18.97;;;-11.50;99.90;;;;;;4355559;28;661684;-60
2021/01/18 01:31:39;;;;;;;102.00;26.13;;;-11.50;99.90;;;;;;4363851;28;660936;-60
2021/01/18 01:34:26;;;;;;;113.80;26.83;;;-11.60;99.90;;;;;;4357230;28;662713;-58
2021/01/18 01:37:14;;;;;;;91.00;23.30;;;-11.60;99.90;;;;;;4359582;28;661654;-59
2021/01/18 01:40:01;;;;;;;88.83;22.27;;;-11.30;99.90;;;;;;4349975;28;662133;-59
2021/01/18 01:42:48;;;;;;;59.77;18.93;;;-11.40;99.90;;;;;;4361045;28;660592;-60
2021/01/18 01:45:35;;;;;;;86.23;24.43;;;-11.30;99.90;;;;;;4340155;28;661431;-59
2021/01/18 01:48:22;;;;;;;64.23;18.77;;;-11.30;99.90;;;;;;4378458;28;661346;-59
2021/01/18 01:51:09;;;;;;;83.77;24.27;;;-11.30;99.90;;;;;;4354224;28;661671;-60
2021/01/18 01:53:58;;;;;;;98.67;27.17;;;-11.20;99.90;;;;;;4366453;28;661358;-59
2021/01/18 01:56:45;;;;;;;60.40;16.07;;;-11.20;99.90;;;;;;4348794;28;661989;-59
2021/01/18 01:59:32;;;;;;;95.97;23.47;;;-11.30;99.90;;;;;;4362445;28;660919;-60
2021/01/18 02:02:19;;;;;;;20.77;7.87;;;-11.50;99.90;;;;;;4362462;28;660946;-60
2021/01/18 02:05:12;;;;;;;72.13;20.37;;;-11.40;99.90;;;;;;4354849;28;661118;-59
2021/01/18 02:08:00;;;;;;;95.47;26.97;;;-11.60;99.90;;;;;;4331198;28;663080;-59
2021/01/18 02:10:48;;;;;;;70.00;18.70;;;-11.60;99.90;;;;;;4366544;28;661761;-59
2021/01/18 02:13:44;;;;;;;87.97;22.17;;;-11.60;99.90;;;;;;4344303;28;661938;-59
2021/01/18 02:16:44;;;;;;;44.33;15.10;;;-11.50;99.90;;;;;;4320114;28;662026;-59
2021/01/18 02:20:04;;;;;;;81.93;21.83;;;-11.30;99.90;;;;;;4324062;28;660789;-59
2021/01/18 02:23:35;;;;;;;29.43;11.00;;;-11.60;99.90;;;;;;4314114;28;661789;-60
2021/01/18 02:26:32;;;;;;;80.80;20.03;;;-11.70;99.90;;;;;;4330780;28;661085;-59
2021/01/18 02:29:25;;;;;;;81.45;20.05;;;-11.70;99.90;;;;;;4305187;28;661092;-60
2021/01/18 02:32:48;;;;;;;44.40;12.33;;;-11.70;99.90;;;;;;4348594;28;662648;-60
2021/01/18 02:36:12;;;;;;;20.80;7.67;;;-11.70;99.90;;;;;;4247322;29;661155;-59
2021/01/18 02:39:03;;;;;;;36.97;11.40;;;-11.80;99.90;;;;;;4250393;29;659467;-60
2021/01/18 02:41:54;;;;;;;44.17;14.90;;;-11.80;99.90;;;;;;4257252;29;662390;-59
2021/01/18 02:44:41;;;;;;;38.70;11.60;;;-11.80;99.90;;;;;;4287056;29;661279;-59
2021/01/18 02:47:30;;;;;;;70.97;19.87;;;-11.70;99.90;;;;;;4313022;29;661369;-59
2021/01/18 02:50:17;;;;;;;36.47;10.63;;;-11.80;99.90;;;;;;4293212;29;662045;-59
2021/01/18 02:53:05;;;;;;;16.20;7.50;;;-11.70;99.90;;;;;;4298605;29;660714;-60
2021/01/18 02:55:52;;;;;;;76.77;19.67;;;-11.70;99.90;;;;;;4310672;29;660764;-59
2021/01/18 02:58:39;;;;;;;70.03;18.33;;;-11.60;99.90;;;;;;4297459;29;661025;-60
2021/01/18 03:01:45;;;;;;;40.23;11.37;;;-11.50;99.90;;;;;;4322999;29;662001;-59
2021/01/18 03:04:41;;;;;;;53.43;15.63;;;-11.60;99.90;;;;;;4294758;29;660796;-60
2021/01/18 03:07:31;;;;;;;21.43;7.33;;;-11.70;99.90;;;;;;4293372;29;661443;-59
2021/01/18 03:10:21;;;;;;;70.72;18.30;;;-11.70;99.90;;;;;;4281912;29;659749;-59
2021/01/18 03:13:12;;;;;;;49.42;13.35;;;-11.40;99.90;;;;;;4288364;29;661418;-60
2021/01/18 03:16:01;;;;;;;77.20;22.35;;;-11.20;99.90;;;;;;4321524;28;660817;-60
2021/01/18 03:18:49;;;;;;;51.60;14.50;;;-11.30;99.90;;;;;;4365994;28;662032;-60
2021/01/18 03:21:36;;;;;;;70.18;16.98;;;-11.50;99.90;;;;;;4372400;28;662322;-60
2021/01/18 03:24:23;;;;;;;77.00;20.30;;;-11.60;99.90;;;;;;4369190;28;660489;-59
2021/01/18 03:27:11;;;;;;;73.60;18.50;;;-11.70;99.90;;;;;;4341645;28;660714;-59
2021/01/18 03:30:12;;;;;;;41.93;12.47;;;-11.40;99.90;;;;;;4326258;28;661794;-60
2021/01/18 03:32:59;;;;;;;48.97;14.33;;;-11.50;99.90;;;;;;4286063;28;660932;-60
2021/01/18 03:35:46;;;;;;;31.60;10.23;;;-11.60;99.90;;;;;;4330540;29;661983;-59
2021/01/18 03:38:33;;;;;;;15.87;6.37;;;-11.40;99.90;;;;;;4326449;29;660843;-59
2021/01/18 03:41:20;;;;;;;59.93;16.77;;;-11.20;99.90;;;;;;4324883;28;659508;-60
2021/01/18 03:44:09;;;;;;;64.20;18.13;;;-11.10;99.90;;;;;;4334546;28;662341;-59
2021/01/18 03:46:56;;;;;;;75.95;20.77;;;-11.30;99.90;;;;;;4334365;28;661248;-59
2021/01/18 03:49:43;;;;;;;76.82;18.50;;;-11.50;99.90;;;;;;4360707;28;661334;-59
2021/01/18 03:52:30;;;;;;;70.72;21.30;;;-11.50;99.90;;;;;;4351745;28;660632;-60
2021/01/18 03:55:17;;;;;;;89.35;23.92;;;-11.70;99.90;;;;;;4367580;28;661926;-59
2021/01/18 03:58:04;;;;;;;65.50;15.00;;;-11.70;99.90;;;;;;4344107;28;661776;-60
2021/01/18 04:00:52;;;;;;;63.92;20.30;;;-11.70;99.90;;;;;;4371454;28;660759;-59
2021/01/18 04:03:39;;;;;;;43.78;14.50;;;-11.70;99.90;;;;;;4345723;28;660834;-60
2021/01/18 04:06:26;;;;;;;83.35;19.48;;;-11.80;99.90;;;;;;4371071;28;661775;-59
2021/01/18 04:09:13;;;;;;;76.18;22.58;;;-11.90;99.90;;;;;;4334413;28;661373;-60
2021/01/18 04:12:00;;;;;;;35.63;10.45;;;-11.80;99.90;;;;;;4348995;28;661435;-59
2021/01/18 04:14:47;;;;;;;80.68;20.85;;;-11.80;99.90;;;;;;4358444;28;662255;-60
2021/01/18 04:17:35;;;;;;;65.77;15.37;;;-11.80;99.90;;;;;;4350041;28;661643;-60
2021/01/18 04:20:22;;;;;;;98.28;26.27;;;-11.80;99.90;;;;;;4344752;28;662109;-59
2021/01/18 04:23:09;;;;;;;40.97;12.63;;;-11.70;99.90;;;;;;4331311;28;661629;-59
2021/01/18 04:25:56;;;;;;;51.37;16.03;;;-11.70;99.90;;;;;;4369008;28;662519;-59
2021/01/18 04:28:43;;;;;;;71.50;21.37;;;-11.70;99.90;;;;;;4366599;28;662636;-59
2021/01/18 04:31:33;;;;;;;54.10;15.17;;;-11.80;99.90;;;;;;4345527;28;660840;-59
2021/01/18 04:34:21;;;;;;;74.77;17.57;;;-11.90;99.90;;;;;;4352985;28;661686;-60
2021/01/18 04:37:08;;;;;;;75.47;19.97;;;-11.80;99.90;;;;;;4373127;28;660867;-58
2021/01/18 04:39:55;;;;;;;63.07;18.30;;;-11.70;99.90;;;;;;4339283;28;660774;-59
2021/01/18 04:42:42;;;;;;;50.50;14.40;;;-11.60;99.90;;;;;;4359887;28;662095;-59
2021/01/18 04:45:30;;;;;;;28.35;12.55;;;-11.90;99.90;;;;;;4352278;28;660808;-59
2021/01/18 04:48:17;;;;;;;61.22;16.60;;;-11.90;99.90;;;;;;4349239;28;661817;-59
2021/01/18 04:51:05;;;;;;;62.58;17.75;;;-11.90;99.90;;;;;;4343582;28;662174;-60
2021/01/18 04:53:52;;;;;;;57.67;15.90;;;-12.00;99.90;;;;;;4367555;28;661572;-59
2021/01/18 04:57:04;;;;;;;50.57;14.67;;;-12.00;99.90;;;;;;4348430;28;662138;-60
2021/01/18 04:59:51;;;;;;;48.28;16.67;;;-12.00;99.90;;;;;;4294910;28;661407;-59
2021/01/18 05:02:40;;;;;;;80.43;20.30;;;-12.00;99.90;;;;;;4350501;28;660681;-60
2021/01/18 05:05:30;;;;;;;66.60;13.77;;;-12.10;99.90;;;;;;4363561;28;662058;-60
2021/01/18 05:08:33;;;;;;;66.80;16.90;;;-12.00;99.90;;;;;;4347170;28;661998;-59
2021/01/18 05:11:20;;;;;;;27.27;7.57;;;-12.00;99.90;;;;;;4311107;28;661402;-59
2021/01/18 05:14:07;;;;;;;64.53;18.97;;;-11.80;99.90;;;;;;4371368;28;660366;-58
2021/01/18 05:16:56;;;;;;;59.37;16.00;;;-11.90;99.90;;;;;;4350763;28;660951;-60
2021/01/18 05:19:43;;;;;;;61.33;17.27;;;-12.00;99.90;;;;;;4370248;28;661997;-59
2021/01/18 05:22:30;;;;;;;64.17;17.13;;;-12.10;99.90;;;;;;4340110;28;660704;-59
2021/01/18 05:25:18;;;;;;;69.23;17.87;;;-12.20;99.90;;;;;;4365217;28;661303;-59
2021/01/18 05:28:06;;;;;;;62.87;17.83;;;-12.30;99.90;;;;;;4345913;28;660915;-60
2021/01/18 05:30:53;;;;;;;37.85;11.98;;;-12.40;99.90;;;;;;4367781;28;661346;-59
2021/01/18 05:33:40;;;;;;;45.00;11.77;;;-12.40;99.90;;;;;;4353023;28;660793;-59
2021/01/18 05:36:37;;;;;;;55.23;14.43;;;-12.40;99.90;;;;;;4344798;28;662298;-60
2021/01/18 05:39:31;;;;;;;45.63;11.37;;;-12.40;99.90;;;;;;4326632;28;661946;-59
2021/01/18 05:42:22;;;;;;;39.07;11.80;;;-12.40;99.90;;;;;;4329294;28;661090;-59
2021/01/18 05:45:11;;;;;;;60.23;17.93;;;-12.50;99.90;;;;;;4337186;28;660604;-59
2021/01/18 05:47:58;;;;;;;52.20;15.43;;;-12.60;99.90;;;;;;4368507;28;661339;-59
2021/01/18 05:50:45;;;;;;;63.80;15.90;;;-12.60;99.90;;;;;;4342236;28;661553;-58
2021/01/18 05:53:33;;;;;;;36.50;11.43;;;-12.70;99.90;;;;;;4369928;28;660776;-59
2021/01/18 05:56:20;;;;;;;56.23;15.00;;;-12.80;99.90;;;;;;4342892;28;661857;-60
2021/01/18 05:59:19;;;;;;;61.33;17.10;;;-12.90;99.90;;;;;;4352709;28;661135;-59
2021/01/18 06:02:06;;;;;;;46.15;12.82;;;-13.00;99.90;;;;;;4310415;28;662186;-59
2021/01/18 06:04:53;;;;;;;42.97;10.93;;;-13.00;99.90;;;;;;4362971;28;660531;-60
2021/01/18 06:07:40;;;;;;;39.97;12.07;;;-13.20;99.90;;;;;;4346908;28;660803;-59
2021/01/18 06:10:32;;;;;;;27.50;10.17;;;-13.40;99.90;;;;;;4378882;28;661252;-60
2021/01/18 06:13:24;;;;;;;17.53;5.43;;;-13.60;99.90;;;;;;4331157;28;660530;-59
2021/01/18 06:16:12;;;;;;;43.20;12.27;;;-13.70;99.90;;;;;;4352740;28;660415;-59
2021/01/18 06:19:07;;;;;;;32.70;8.45;;;-13.70;99.90;;;;;;4344619;28;661702;-59
2021/01/18 06:21:54;;;;;;;42.83;13.63;;;-13.90;99.90;;;;;;4328961;28;659531;-59
2021/01/18 06:24:41;;;;;;;37.53;12.77;;;-14.10;99.90;;;;;;4363729;28;662566;-60
2021/01/18 06:27:32;;;;;;;43.70;10.83;;;-14.20;99.90;;;;;;4362154;28;660946;-60
2021/01/18 06:30:23;;;;;;;26.33;9.67;;;-14.30;99.90;;;;;;4343431;28;660917;-59
2021/01/18 06:33:13;;;;;;;5.57;2.33;;;-14.40;99.90;;;;;;4349133;28;660936;-59
2021/01/18 06:36:13;;;;;;;13.63;5.70;;;-14.40;99.90;;;;;;4345482;28;659692;-59
2021/01/18 06:39:03;;;;;;;44.70;12.17;;;-14.50;99.90;;;;;;4345442;28;660349;-59
2021/01/18 06:41:55;;;;;;;19.30;6.97;;;-14.70;99.90;;;;;;4346782;28;663101;-59
2021/01/18 06:44:42;;;;;;;26.23;5.20;;;-14.70;99.90;;;;;;4344834;28;659903;-59
2021/01/18 06:47:30;;;;;;;27.20;8.17;;;-14.80;99.90;;;;;;4353658;28;659890;-59
2021/01/18 06:50:18;;;;;;;29.50;9.60;;;-14.80;99.90;;;;;;4366174;28;660588;-59
2021/01/18 06:53:17;;;;;;;19.70;5.07;;;-14.90;99.90;;;;;;4348241;28;661494;-59
2021/01/18 06:56:16;;;;;;;26.33;7.55;;;-15.00;99.90;;;;;;4316880;28;659644;-60
2021/01/18 06:59:04;;;;;;;52.77;14.53;;;-15.00;99.90;;;;;;4356502;28;660199;-59
2021/01/18 07:01:52;;;;;;;26.40;4.00;;;-15.10;99.90;;;;;;4342353;28;662626;-59
2021/01/18 07:04:45;;;;;;;32.10;6.15;;;-15.10;99.90;;;;;;4347038;28;659688;-57
2021/01/18 07:07:33;;;;;;;15.63;4.70;;;-15.10;99.90;;;;;;4337403;28;661072;-59
2021/01/18 07:10:21;;;;;;;2.27;1.80;;;-15.20;99.90;;;;;;4343787;28;660801;-59
2021/01/18 07:13:08;;;;;;;7.07;3.10;;;-15.10;99.90;;;;;;4354766;28;658550;-60
2021/01/18 07:15:55;;;;;;;8.15;3.33;;;-15.10;99.90;;;;;;4347825;28;659363;-59
2021/01/18 07:18:42;;;;;;;7.53;3.20;;;-15.00;99.90;;;;;;4372544;28;660041;-59
2021/01/18 07:21:29;;;;;;;16.05;5.35;;;-15.00;99.90;;;;;;4344204;28;659330;-60
2021/01/18 07:24:18;;;;;;;4.50;2.87;;;-14.90;99.90;;;;;;4368817;28;661623;-59
2021/01/18 07:27:06;;;;;;;3.13;1.80;;;-14.90;99.90;;;;;;4345719;28;658618;-59
2021/01/18 07:29:53;;;;;;;7.70;4.10;;;-14.80;99.90;;;;;;4337064;28;659752;-59
2021/01/18 07:32:40;;;;;;;50.23;13.10;;;-14.70;99.90;;;;;;4324569;28;659349;-59
2021/01/18 07:35:27;;;;;;;15.20;5.50;;;-14.60;99.90;;;;;;4361203;28;661160;-60
2021/01/18 07:38:15;;;;;;;41.17;10.33;;;-14.50;99.90;;;;;;4349721;28;661588;-60
2021/01/18 07:41:29;;;;;;;5.93;2.67;;;-14.40;99.90;;;;;;4357562;28;662003;-59
2021/01/18 07:44:35;;;;;;;10.53;2.90;;;-14.30;99.90;;;;;;4344842;28;659931;-59
2021/01/18 07:47:22;;;;;;;3.97;2.17;;;-14.20;99.90;;;;;;4335981;28;660978;-60
2021/01/18 07:50:09;;;;;;;1.70;1.27;;;-14.00;99.90;;;;;;4342516;28;658173;-60
2021/01/18 07:52:57;;;;;;;11.73;6.83;;;-13.80;99.90;;;;;;4370238;28;660219;-59
2021/01/18 07:55:45;;;;;;;24.77;9.57;;;-13.60;99.90;;;;;;4336834;28;659520;-59
2021/01/18 07:58:33;;;;;;;58.03;10.90;;;-13.50;99.90;;;;;;4363801;28;660869;-60
2021/01/18 08:01:20;;;;;;;56.73;15.07;;;-13.20;99.90;;;;;;4342437;28;661358;-59
2021/01/18 08:04:19;;;;;;;65.00;19.77;;;-13.10;99.90;;;;;;4360709;28;662845;-60
2021/01/18 08:07:07;;;;;;;50.97;15.07;;;-12.70;99.90;;;;;;4315586;28;662689;-59
2021/01/18 08:09:54;;;;;;;34.70;10.30;;;-12.50;99.90;;;;;;4342239;28;660838;-60
2021/01/18 08:12:41;;;;;;;91.70;25.80;;;-12.20;99.90;;;;;;4360673;28;662197;-60
2021/01/18 08:15:29;;;;;;;66.10;19.97;;;-12.00;99.90;;;;;;4359075;28;660503;-60
2021/01/18 08:18:28;;;;;;;85.67;24.00;;;-11.80;99.90;;;;;;4330334;28;661603;-59
2021/01/18 08:21:42;;;;;;;101.67;29.53;;;-11.20;99.90;;;;;;4314581;28;662103;-60
2021/01/18 08:24:54;;;;;;;88.43;24.60;;;-10.40;99.90;;;;;;4310009;28;663401;-60
2021/01/18 08:27:48;;;;;;;32.00;10.37;;;-9.40;99.90;;;;;;4324022;28;661281;-59
2021/01/18 08:30:41;;;;;;;81.90;22.98;;;-8.70;98.30;;;;;;4304124;28;660472;-59
2021/01/18 08:33:28;;;;;;;16.87;9.50;;;-7.90;85.80;;;;;;4329430;28;659827;-60
2021/01/18 08:36:32;;;;;;;86.25;25.83;;;-7.50;80.20;;;;;;4331462;28;658883;-60
2021/01/18 08:39:19;;;;;;;36.20;12.00;;;-7.20;77.10;;;;;;4307456;28;660784;-60
2021/01/18 08:42:06;;;;;;;17.90;9.17;;;-6.70;71.10;;;;;;4348309;28;661206;-60
2021/01/18 08:45:00;;;;;;;32.97;13.07;;;-6.70;69.70;;;;;;4342110;28;660095;-60
2021/01/18 08:47:54;;;;;;;88.27;25.77;;;-6.80;68.40;;;;;;4327817;28;661091;-59
2021/01/18 08:50:46;;;;;;;72.70;21.57;;;-6.90;69.20;;;;;;4303642;28;660429;-59
2021/01/18 08:53:34;;;;;;;92.47;27.57;;;-6.80;69.20;;;;;;4316035;28;660133;-61
2021/01/18 08:56:32;;;;;;;29.37;10.97;;;-6.50;70.00;;;;;;4356565;28;660151;-60
2021/01/18 08:59:19;;;;;;;57.50;15.83;;;-6.50;66.00;;;;;;4319280;28;659547;-59
2021/01/18 09:02:06;;;;;;;65.03;19.03;;;-7.20;68.40;;;;;;4359734;28;660718;-59
2021/01/18 09:04:55;;;;;;;44.67;12.30;;;-7.10;69.40;;;;;;4337219;28;659415;-60
2021/01/18 09:07:43;;;;;;;16.37;6.20;;;-6.60;68.20;;;;;;4349949;28;659145;-59
2021/01/18 09:10:30;;;;;;;96.83;28.50;;;-6.30;66.60;;;;;;4333947;28;660454;-60
2021/01/18 09:13:18;;;;;;;61.17;19.93;;;-5.80;68.10;;;;;;4350621;28;659930;-60
2021/01/18 09:16:06;;;;;;;92.20;23.23;;;-5.70;62.80;;;;;;4330562;28;661161;-59
2021/01/18 09:18:54;;;;;;;32.93;11.20;;;-5.90;63.10;;;;;;4347000;28;659637;-60
2021/01/18 09:21:42;;;;;;;89.17;24.83;;;-6.40;64.00;;;;;;4352577;28;661055;-60
2021/01/18 09:24:29;;;;;;;39.25;10.65;;;-6.30;65.70;;;;;;4337379;28;659960;-61
2021/01/18 09:27:16;;;;;;;35.20;10.80;;;-6.10;65.40;;;;;;4357269;28;659679;-60
2021/01/18 09:30:04;;;;;;;57.43;16.63;;;-5.30;62.50;;;;;;4348952;28;660100;-59
2021/01/18 09:32:55;;;;;;;58.10;16.83;;;-4.80;61.60;;;;;;4325916;28;660305;-59
2021/01/18 09:35:43;;;;;;;62.67;17.80;;;-4.10;58.10;;;;;;4323315;28;659584;-59
2021/01/18 09:38:31;;;;;;;61.10;19.93;;;-4.50;56.40;;;;;;4337631;28;660389;-61
2021/01/18 09:41:18;;;;;;;79.15;23.58;;;-5.00;58.20;;;;;;4352574;28;659318;-59
2021/01/18 09:44:06;;;;;;;68.03;21.90;;;-4.90;60.30;;;;;;4328697;28;659835;-60
2021/01/18 09:46:53;;;;;;;29.13;8.93;;;-5.20;59.80;;;;;;4354113;28;659551;-59
2021/01/18 09:49:40;;;;;;;83.73;25.80;;;-5.10;59.80;;;;;;4335723;28;658737;-59
2021/01/18 09:52:27;;;;;;;101.37;30.27;;;-4.30;60.50;;;;;;4347392;28;661044;-60
2021/01/18 09:55:18;;;;;;;34.90;11.67;;;-3.50;56.00;;;;;;4328217;28;661659;-61
2021/01/18 09:58:08;;;;;;;58.90;20.70;;;-3.60;55.20;;;;;;4331820;28;660774;-60
2021/01/18 10:00:55;;;;;;;64.27;19.13;;;-3.60;54.50;;;;;;4326026;28;660905;-60
2021/01/18 10:03:42;;;;;;;97.27;30.07;;;-3.70;55.50;;;;;;4354009;28;660374;-60
2021/01/18 10:06:29;;;;;;;93.40;31.50;;;-3.10;54.70;;;;;;4337628;28;659958;-60
2021/01/18 10:09:20;;;;;;;88.43;29.20;;;-2.70;53.80;;;;;;4347307;28;660739;-60
2021/01/18 10:12:08;;;;;;;106.60;33.67;;;-2.00;52.00;;;;;;4334157;28;660523;-60
2021/01/18 10:14:56;;;;;;;115.03;33.10;;;-2.00;50.60;;;;;;4338204;28;662820;-61
2021/01/18 10:17:44;;;;;;;111.53;34.30;;;-1.30;52.10;;;;;;4342343;28;660570;-61
2021/01/18 10:20:30;;;;;;;104.67;34.20;;;-0.60;49.20;;;;;;4354603;28;662184;-60
2021/01/18 10:23:17;;;;;;;71.83;24.07;;;-1.00;47.60;;;;;;4348498;28;660536;-61
2021/01/18 10:26:24;;;;;;;105.97;32.80;;;-0.90;47.70;;;;;;4334864;28;660541;-60
2021/01/18 10:29:21;;;;;;;110.80;32.73;;;-1.10;48.10;;;;;;4312089;28;662165;-61
2021/01/18 10:32:08;;;;;;;84.10;26.37;;;-0.80;48.20;;;;;;4337481;28;660508;-60
2021/01/18 10:34:55;;;;;;;66.27;21.93;;;-0.90;48.20;;;;;;4334334;28;659802;-61
2021/01/18 10:37:42;;;;;;;123.23;38.27;;;-0.40;46.70;;;;;;4357703;28;660365;-60
2021/01/18 10:40:29;;;;;;;75.67;26.43;;;-0.60;47.60;;;;;;4341908;28;660895;-61
2021/01/18 10:43:21;;;;;;;113.43;34.20;;;-0.90;46.30;;;;;;4361061;28;660746;-60
2021/01/18 10:46:15;;;;;;;83.57;27.23;;;0.00;48.70;;;;;;4334420;28;662188;-62
2021/01/18 10:49:02;;;;;;;76.90;25.70;;;1.50;45.10;;;;;;4349718;28;660315;-60
2021/01/18 10:51:58;;;;;;;47.70;16.23;;;1.80;42.70;;;;;;4340916;28;658704;-62
2021/01/18 10:54:58;;;;;;;66.57;21.63;;;1.50;41.70;;;;;;4350886;28;660430;-60
2021/01/18 10:57:45;;;;;;;65.00;23.40;;;0.60;42.80;;;;;;4346557;28;658595;-61
2021/01/18 11:00:33;;;;;;;101.80;34.10;;;-0.30;44.80;;;;;;4340698;28;658237;-60
2021/01/18 11:03:24;;;;;;;123.27;38.97;;;-0.40;46.70;;;;;;4350124;28;662681;-61
2021/01/18 11:06:12;;;;;;;116.83;37.27;;;-0.10;45.30;;;;;;4341004;28;660848;-60
2021/01/18 11:08:59;;;;;;;102.13;31.77;;;0.20;45.00;;;;;;4348663;28;660602;-61
2021/01/18 11:11:47;;;;;;;58.20;17.57;;;-0.10;45.50;;;;;;4359722;28;660475;-59
2021/01/18 11:14:34;;;;;;;79.53;24.47;;;0.00;44.90;;;;;;4344383;28;660266;-61
2021/01/18 11:17:28;;;;;;;97.40;31.40;;;-0.30;46.30;;;;;;4356744;28;658711;-60
2021/01/18 11:20:22;;;;;;;67.80;22.00;;;-1.30;47.60;;;;;;4323630;28;660462;-60
2021/01/18 11:23:09;;;;;;;41.40;14.03;;;-1.50;49.90;;;;;;4345604;28;660440;-60
2021/01/18 11:25:56;;;;;;;85.33;25.90;;;-0.60;48.90;;;;;;4371927;28;660739;-60
2021/01/18 11:28:44;;;;;;;56.17;17.00;;;0.10;47.20;;;;;;4353802;28;660697;-60
2021/01/18 11:31:31;;;;;;;76.83;25.97;;;-0.70;46.40;;;;;;4372739;28;658555;-60
2021/01/18 11:34:17;;;;;;;59.17;20.70;;;-1.40;48.30;;;;;;4356633;28;659789;-60
2021/01/18 11:37:05;;;;;;;62.03;20.67;;;-2.20;50.70;;;;;;4369166;28;660259;-60
2021/01/18 11:39:52;;;;;;;88.60;26.67;;;-1.50;50.90;;;;;;4368696;28;659917;-59
2021/01/18 11:42:39;;;;;;;79.63;25.85;;;-0.80;51.00;;;;;;4351453;28;660391;-60
2021/01/18 11:45:27;;;;;;;73.53;22.37;;;1.00;47.70;;;;;;4373983;28;661021;-60
2021/01/18 11:48:14;;;;;;;80.97;25.97;;;1.80;44.90;;;;;;4357548;28;659008;-62
2021/01/18 11:51:01;;;;;;;86.45;29.75;;;3.30;43.50;;;;;;4378211;28;658173;-60
2021/01/18 11:53:49;;;;;;;54.97;17.40;;;5.00;41.50;;;;;;4371717;28;659064;-60
2021/01/18 11:56:36;;;;;;;66.27;20.77;;;4.70;37.10;;;;;;4353713;28;660164;-59
2021/01/18 11:59:22;;;;;;;74.63;23.33;;;2.40;40.10;;;;;;4370124;28;658521;-61
2021/01/18 12:02:09;;;;;;;71.60;24.20;;;1.20;43.50;;;;;;4347444;28;659559;-59
2021/01/18 12:04:56;;;;;;;43.33;14.50;;;1.30;45.40;;;;;;4374102;28;659539;-59
2021/01/18 12:07:45;;;;;;;38.07;12.53;;;1.70;44.40;;;;;;4366380;28;658844;-61
2021/01/18 12:10:34;;;;;;;102.67;33.47;;;1.70;44.20;;;;;;4363506;28;659588;-60
2021/01/18 12:13:21;;;;;;;31.07;11.23;;;1.50;45.40;;;;;;4349780;28;660542;-60
2021/01/18 12:16:09;;;;;;;49.13;16.83;;;1.50;44.00;;;;;;4367942;28;658993;-61
2021/01/18 12:18:55;;;;;;;38.70;13.10;;;2.10;45.90;;;;;;4383269;28;658608;-60
2021/01/18 12:21:43;;;;;;;45.07;17.43;;;2.70;42.70;;;;;;4374447;28;659519;-60
2021/01/18 12:24:30;;;;;;;46.73;16.27;;;2.00;42.70;;;;;;4347926;28;659549;-59
2021/01/18 12:27:18;;;;;;;39.47;13.97;;;1.00;44.50;;;;;;4358402;28;659820;-60
2021/01/18 12:30:06;;;;;;;35.50;13.40;;;-0.20;46.30;;;;;;4349719;28;659356;-60
2021/01/18 12:32:53;;;;;;;51.53;16.60;;;-1.90;51.90;;;;;;4360149;28;660959;-60
2021/01/18 12:35:40;;;;;;;37.17;11.50;;;-1.90;52.20;;;;;;4349335;28;659894;-60
2021/01/18 12:38:27;;;;;;;44.90;14.85;;;-0.30;51.70;;;;;;4363377;28;660850;-59
2021/01/18 12:41:14;;;;;;;50.90;16.77;;;0.70;47.00;;;;;;4332887;28;659921;-60
2021/01/18 12:44:02;;;;;;;53.45;18.30;;;1.80;45.40;;;;;;4354346;28;658510;-60
2021/01/18 12:46:50;;;;;;;54.42;18.70;;;2.60;42.70;;;;;;4331690;28;658712;-61
2021/01/18 12:49:37;;;;;;;57.63;19.93;;;3.70;43.30;;;;;;4355345;28;659748;-59
2021/01/18 12:52:24;;;;;;;48.60;16.77;;;3.60;41.20;;;;;;4344316;28;660509;-61
2021/01/18 12:55:11;;;;;;;39.73;14.83;;;3.70;39.50;;;;;;4359358;28;659231;-59
2021/01/18 12:58:01;;;;;;;55.93;19.80;;;3.00;39.60;;;;;;4347799;28;659538;-61
2021/01/18 13:00:49;;;;;;;25.30;9.33;;;3.10;40.70;;;;;;4349650;28;658841;-60
2021/01/18 13:03:36;;;;;;;50.13;17.10;;;2.90;40.30;;;;;;4335260;28;659685;-59
2021/01/18 13:06:31;;;;;;;42.53;15.97;;;1.40;43.20;;;;;;4356144;28;658828;-60
2021/01/18 13:09:20;;;;;;;46.43;16.03;;;0.50;45.30;;;;;;4332134;28;659073;-60
2021/01/18 13:12:07;;;;;;;55.67;20.03;;;0.20;47.10;;;;;;4364037;28;660926;-59
2021/01/18 13:14:54;;;;;;;58.53;21.57;;;-0.20;46.30;;;;;;4347405;28;658518;-60
2021/01/18 13:17:42;;;;;;;59.23;20.63;;;0.60;47.30;;;;;;4362960;28;659754;-60
2021/01/18 13:20:29;;;;;;;57.20;20.80;;;1.10;45.40;;;;;;4345195;28;658566;-60
2021/01/18 13:23:16;;;;;;;43.97;13.13;;;1.40;44.40;;;;;;4353961;28;660882;-59
2021/01/18 13:26:03;;;;;;;71.07;22.60;;;0.40;45.90;;;;;;4375499;28;659628;-60
2021/01/18 13:28:51;;;;;;;32.07;11.63;;;0.00;48.20;;;;;;4365473;28;659901;-59
2021/01/18 13:31:38;;;;;;;70.63;24.00;;;-0.60;48.40;;;;;;4371493;28;659158;-59
2021/01/18 13:34:26;;;;;;;74.28;23.25;;;0.50;48.20;;;;;;4347646;28;660617;-60
2021/01/18 13:37:13;;;;;;;52.10;16.57;;;1.60;46.90;;;;;;4392294;28;658469;-60
2021/01/18 13:40:00;;;;;;;56.83;17.63;;;1.20;44.20;;;;;;4362258;28;658536;-60
2021/01/18 13:42:47;;;;;;;50.47;15.70;;;-0.60;48.40;;;;;;4386262;28;659818;-60
2021/01/18 13:45:34;;;;;;;55.60;17.75;;;-1.30;50.00;;;;;;4358819;28;659554;-60
2021/01/18 13:48:23;;;;;;;31.05;7.60;;;-2.20;51.90;;;;;;4372689;28;662250;-59
2021/01/18 13:51:14;;;;;;;16.50;5.77;;;-2.90;53.80;;;;;;4367085;28;660198;-59
2021/01/18 13:54:00;;;;;;;57.03;18.57;;;-3.40;55.40;;;;;;4355788;28;659143;-59
2021/01/18 13:56:52;;;;;;;23.60;8.13;;;-3.70;56.60;;;;;;4372399;28;659997;-60
2021/01/18 13:59:39;;;;;;;63.00;18.13;;;-3.90;57.30;;;;;;4331950;28;658663;-60
2021/01/18 14:02:26;;;;;;;65.53;20.60;;;-4.10;58.60;;;;;;4380963;28;659848;-59
2021/01/18 14:05:13;;;;;;;66.03;20.87;;;-4.20;58.60;;;;;;4370681;28;659383;-59